sensor_id;sensor_type;location;lat;lon;timestamp;pressure;altitude;pressure_sealevel;temperature;humidity
30618;BME280;17384;51.214;9.202;2023-08-08T00:00:50;98582.56;;;10.76;96.57
30618;BME280;17384;51.214;9.202;2023-08-08T00:03:16;98576.47;;;10.81;96.92
30618;BME280;17384;51.214;9.202;2023-08-08T00:05:41;98577.91;;;10.83;96.69
30618;BME280;17384;51.214;9.202;2023-08-08T00:08:07;98571.88;;;10.81;97.12
30618;BME280;17384;51.214;9.202;2023-08-08T00:10:33;98561.81;;;10.89;96.88
30618;BME280;17384;51.214;9.202;2023-08-08T00:12:58;98545.31;;;10.90;96.45
30618;BME280;17384;51.214;9.202;2023-08-08T00:15:24;98551.78;;;10.89;96.75
30618;BME280;17384;51.214;9.202;2023-08-08T00:17:49;98561.72;;;10.95;96.75
30618;BME280;17384;51.214;9.202;2023-08-08T00:20:15;98554.28;;;10.91;97.02
30618;BME280;17384;51.214;9.202;2023-08-08T00:22:41;98548.00;;;10.90;97.20
30618;BME280;17384;51.214;9.202;2023-08-08T00:25:07;98555.72;;;10.93;97.48
30618;BME280;17384;51.214;9.202;2023-08-08T00:27:32;98542.59;;;10.90;97.08
30618;BME280;17384;51.214;9.202;2023-08-08T00:29:58;98546.97;;;10.91;96.85
30618;BME280;17384;51.214;9.202;2023-08-08T00:32:23;98550.56;;;11.03;96.64
30618;BME280;17384;51.214;9.202;2023-08-08T00:34:49;98543.22;;;11.10;96.15
30618;BME280;17384;51.214;9.202;2023-08-08T00:37:14;98521.16;;;11.00;96.07
30618;BME280;17384;51.214;9.202;2023-08-08T00:39:40;98534.38;;;11.15;96.23
30618;BME280;17384;51.214;9.202;2023-08-08T00:42:07;98533.72;;;11.19;95.71
30618;BME280;17384;51.214;9.202;2023-08-08T00:44:33;98538.94;;;11.21;95.93
30618;BME280;17384;51.214;9.202;2023-08-08T00:46:58;98527.13;;;11.27;95.78
30618;BME280;17384;51.214;9.202;2023-08-08T00:49:24;98519.81;;;11.28;95.75
30618;BME280;17384;51.214;9.202;2023-08-08T00:51:50;98514.84;;;11.25;96.02
30618;BME280;17384;51.214;9.202;2023-08-08T00:54:15;98515.00;;;11.30;95.82
30618;BME280;17384;51.214;9.202;2023-08-08T00:56:41;98519.22;;;11.44;95.06
30618;BME280;17384;51.214;9.202;2023-08-08T00:59:08;98511.53;;;11.41;95.04
30618;BME280;17384;51.214;9.202;2023-08-08T01:01:35;98506.84;;;11.48;94.45
30618;BME280;17384;51.214;9.202;2023-08-08T01:04:01;98488.78;;;11.53;94.20
30618;BME280;17384;51.214;9.202;2023-08-08T01:09:37;98484.75;;;11.74;93.05
30618;BME280;17384;51.214;9.202;2023-08-08T01:12:06;98501.97;;;11.68;93.07
30618;BME280;17384;51.214;9.202;2023-08-08T01:14:34;98493.13;;;11.73;93.59
30618;BME280;17384;51.214;9.202;2023-08-08T01:17:01;98490.72;;;11.65;93.34
30618;BME280;17384;51.214;9.202;2023-08-08T01:19:29;98488.69;;;11.60;93.91
30618;BME280;17384;51.214;9.202;2023-08-08T01:22:00;98486.44;;;11.57;93.96
30618;BME280;17384;51.214;9.202;2023-08-08T01:24:27;98482.50;;;11.53;93.96
30618;BME280;17384;51.214;9.202;2023-08-08T01:27:04;98493.06;;;11.61;93.68
30618;BME280;17384;51.214;9.202;2023-08-08T01:29:30;98497.91;;;11.59;93.64
30618;BME280;17384;51.214;9.202;2023-08-08T01:31:56;98477.75;;;11.67;93.56
30618;BME280;17384;51.214;9.202;2023-08-08T01:34:22;98487.69;;;11.73;92.08
30618;BME280;17384;51.214;9.202;2023-08-08T01:39:16;98497.06;;;11.77;92.88
30618;BME280;17384;51.214;9.202;2023-08-08T01:41:43;98498.94;;;11.76;92.75
30618;BME280;17384;51.214;9.202;2023-08-08T01:44:10;98497.66;;;11.79;92.42
30618;BME280;17384;51.214;9.202;2023-08-08T01:46:36;98501.28;;;11.73;93.10
30618;BME280;17384;51.214;9.202;2023-08-08T01:49:03;98509.50;;;11.66;93.32
30618;BME280;17384;51.214;9.202;2023-08-08T01:51:29;98495.25;;;11.71;93.80
30618;BME280;17384;51.214;9.202;2023-08-08T01:53:55;98505.75;;;11.67;93.59
30618;BME280;17384;51.214;9.202;2023-08-08T01:56:20;98510.88;;;11.75;93.20
30618;BME280;17384;51.214;9.202;2023-08-08T01:58:46;98497.28;;;11.75;93.20
30618;BME280;17384;51.214;9.202;2023-08-08T02:01:11;98500.75;;;11.82;93.04
30618;BME280;17384;51.214;9.202;2023-08-08T02:03:37;98505.13;;;11.83;93.17
30618;BME280;17384;51.214;9.202;2023-08-08T02:06:02;98486.09;;;11.83;93.42
30618;BME280;17384;51.214;9.202;2023-08-08T02:08:28;98495.53;;;11.81;94.22
30618;BME280;17384;51.214;9.202;2023-08-08T02:10:53;98494.84;;;11.85;94.28
30618;BME280;17384;51.214;9.202;2023-08-08T02:13:19;98481.72;;;11.82;94.40
30618;BME280;17384;51.214;9.202;2023-08-08T02:15:44;98473.78;;;11.81;94.63
30618;BME280;17384;51.214;9.202;2023-08-08T02:18:10;98472.88;;;11.87;94.32
30618;BME280;17384;51.214;9.202;2023-08-08T02:20:36;98482.19;;;11.79;95.03
30618;BME280;17384;51.214;9.202;2023-08-08T02:23:02;98479.38;;;11.86;94.62
30618;BME280;17384;51.214;9.202;2023-08-08T02:25:28;98470.88;;;11.94;94.44
30618;BME280;17384;51.214;9.202;2023-08-08T02:27:53;98474.31;;;11.90;94.55
30618;BME280;17384;51.214;9.202;2023-08-08T02:30:19;98462.59;;;11.89;94.60
30618;BME280;17384;51.214;9.202;2023-08-08T02:32:44;98455.28;;;11.90;94.63
30618;BME280;17384;51.214;9.202;2023-08-08T02:35:10;98470.38;;;11.85;94.53
30618;BME280;17384;51.214;9.202;2023-08-08T02:37:35;98463.75;;;11.81;95.17
30618;BME280;17384;51.214;9.202;2023-08-08T02:40:01;98472.44;;;11.72;95.57
30618;BME280;17384;51.214;9.202;2023-08-08T02:42:26;98477.19;;;11.76;95.74
30618;BME280;17384;51.214;9.202;2023-08-08T02:44:52;98476.00;;;11.72;96.09
30618;BME280;17384;51.214;9.202;2023-08-08T02:47:17;98473.13;;;11.67;96.55
30618;BME280;17384;51.214;9.202;2023-08-08T02:49:43;98484.00;;;11.67;96.81
30618;BME280;17384;51.214;9.202;2023-08-08T02:52:08;98476.91;;;11.66;96.66
30618;BME280;17384;51.214;9.202;2023-08-08T02:54:34;98487.63;;;11.61;96.90
30618;BME280;17384;51.214;9.202;2023-08-08T02:57:00;98473.13;;;11.67;97.29
30618;BME280;17384;51.214;9.202;2023-08-08T02:59:25;98461.34;;;11.73;96.82
30618;BME280;17384;51.214;9.202;2023-08-08T03:01:51;98468.91;;;11.71;97.06
30618;BME280;17384;51.214;9.202;2023-08-08T03:04:16;98471.84;;;11.70;97.52
30618;BME280;17384;51.214;9.202;2023-08-08T03:06:42;98470.19;;;11.69;97.65
30618;BME280;17384;51.214;9.202;2023-08-08T03:09:07;98455.63;;;11.63;98.44
30618;BME280;17384;51.214;9.202;2023-08-08T03:11:33;98468.75;;;11.66;98.27
30618;BME280;17384;51.214;9.202;2023-08-08T03:13:58;98455.84;;;11.62;98.33
30618;BME280;17384;51.214;9.202;2023-08-08T03:16:24;98459.78;;;11.66;98.36
30618;BME280;17384;51.214;9.202;2023-08-08T03:18:49;98453.97;;;11.62;98.33
30618;BME280;17384;51.214;9.202;2023-08-08T03:21:15;98457.16;;;11.59;97.70
30618;BME280;17384;51.214;9.202;2023-08-08T03:23:40;98453.59;;;11.59;97.96
30618;BME280;17384;51.214;9.202;2023-08-08T03:26:06;98459.41;;;11.62;97.54
30618;BME280;17384;51.214;9.202;2023-08-08T03:28:31;98457.28;;;11.64;97.88
30618;BME280;17384;51.214;9.202;2023-08-08T03:30:57;98455.84;;;11.62;97.95
30618;BME280;17384;51.214;9.202;2023-08-08T03:33:22;98456.53;;;11.57;98.10
30618;BME280;17384;51.214;9.202;2023-08-08T03:35:48;98445.81;;;11.62;97.62
30618;BME280;17384;51.214;9.202;2023-08-08T03:38:13;98445.50;;;11.70;97.16
30618;BME280;17384;51.214;9.202;2023-08-08T03:40:39;98452.75;;;11.76;97.47
30618;BME280;17384;51.214;9.202;2023-08-08T03:43:08;98451.63;;;11.66;97.20
30618;BME280;17384;51.214;9.202;2023-08-08T03:45:33;98467.28;;;11.52;97.82
30618;BME280;17384;51.214;9.202;2023-08-08T03:47:59;98458.41;;;11.45;99.17
30618;BME280;17384;51.214;9.202;2023-08-08T03:50:25;98443.31;;;11.31;99.65
30618;BME280;17384;51.214;9.202;2023-08-08T03:52:50;98447.63;;;11.38;100.00
30618;BME280;17384;51.214;9.202;2023-08-08T03:55:16;98441.81;;;11.35;100.00
30618;BME280;17384;51.214;9.202;2023-08-08T03:57:41;98435.09;;;11.37;100.00
30618;BME280;17384;51.214;9.202;2023-08-08T04:00:07;98443.94;;;11.33;100.00
30618;BME280;17384;51.214;9.202;2023-08-08T04:02:33;98426.34;;;11.35;100.00
30618;BME280;17384;51.214;9.202;2023-08-08T04:04:59;98430.28;;;11.51;100.00
30618;BME280;17384;51.214;9.202;2023-08-08T04:07:24;98424.53;;;11.47;99.96
30618;BME280;17384;51.214;9.202;2023-08-08T04:09:50;98429.13;;;11.47;100.00
30618;BME280;17384;51.214;9.202;2023-08-08T04:12:18;98438.56;;;11.44;100.00
30618;BME280;17384;51.214;9.202;2023-08-08T04:14:44;98425.06;;;11.38;100.00
30618;BME280;17384;51.214;9.202;2023-08-08T04:17:09;98422.28;;;11.26;100.00
30618;BME280;17384;51.214;9.202;2023-08-08T04:19:35;98420.97;;;11.17;100.00
30618;BME280;17384;51.214;9.202;2023-08-08T04:22:00;98420.22;;;11.10;100.00
30618;BME280;17384;51.214;9.202;2023-08-08T04:24:26;98424.06;;;11.02;100.00
30618;BME280;17384;51.214;9.202;2023-08-08T04:26:51;98414.56;;;11.11;100.00
30618;BME280;17384;51.214;9.202;2023-08-08T04:29:17;98424.06;;;11.21;100.00
30618;BME280;17384;51.214;9.202;2023-08-08T04:31:42;98428.09;;;11.30;99.33
30618;BME280;17384;51.214;9.202;2023-08-08T04:34:08;98416.91;;;11.38;98.30
30618;BME280;17384;51.214;9.202;2023-08-08T04:36:33;98434.56;;;11.47;96.93
30618;BME280;17384;51.214;9.202;2023-08-08T04:38:59;98417.44;;;11.58;96.24
30618;BME280;17384;51.214;9.202;2023-08-08T04:41:24;98410.88;;;11.66;96.67
30618;BME280;17384;51.214;9.202;2023-08-08T04:43:50;98409.56;;;11.68;96.46
30618;BME280;17384;51.214;9.202;2023-08-08T04:46:15;98420.91;;;11.65;96.69
30618;BME280;17384;51.214;9.202;2023-08-08T04:48:41;98417.03;;;11.73;96.42
30618;BME280;17384;51.214;9.202;2023-08-08T04:51:07;98424.38;;;11.72;96.27
30618;BME280;17384;51.214;9.202;2023-08-08T04:53:33;98411.25;;;11.69;96.05
30618;BME280;17384;51.214;9.202;2023-08-08T04:55:59;98416.22;;;11.72;96.22
30618;BME280;17384;51.214;9.202;2023-08-08T04:58:24;98413.41;;;11.79;96.61
30618;BME280;17384;51.214;9.202;2023-08-08T05:00:50;98417.41;;;11.76;95.87
30618;BME280;17384;51.214;9.202;2023-08-08T05:03:20;98417.88;;;11.73;96.66
30618;BME280;17384;51.214;9.202;2023-08-08T05:05:45;98414.22;;;11.79;96.05
30618;BME280;17384;51.214;9.202;2023-08-08T05:08:12;98419.44;;;11.81;96.67
30618;BME280;17384;51.214;9.202;2023-08-08T05:10:38;98403.22;;;11.74;95.94
30618;BME280;17384;51.214;9.202;2023-08-08T05:13:03;98414.47;;;11.78;95.42
30618;BME280;17384;51.214;9.202;2023-08-08T05:15:29;98417.03;;;11.73;95.31
30618;BME280;17384;51.214;9.202;2023-08-08T05:17:55;98439.66;;;11.85;95.02
30618;BME280;17384;51.214;9.202;2023-08-08T05:20:21;98427.72;;;11.86;94.96
30618;BME280;17384;51.214;9.202;2023-08-08T05:22:47;98425.38;;;11.90;94.23
30618;BME280;17384;51.214;9.202;2023-08-08T05:25:12;98429.94;;;11.77;93.97
30618;BME280;17384;51.214;9.202;2023-08-08T05:27:38;98422.84;;;11.76;94.49
30618;BME280;17384;51.214;9.202;2023-08-08T05:30:04;98418.97;;;11.84;93.44
30618;BME280;17384;51.214;9.202;2023-08-08T05:32:30;98417.09;;;11.84;94.38
30618;BME280;17384;51.214;9.202;2023-08-08T05:34:56;98407.06;;;11.97;94.01
30618;BME280;17384;51.214;9.202;2023-08-08T05:37:23;98432.00;;;11.94;94.54
30618;BME280;17384;51.214;9.202;2023-08-08T05:39:49;98425.97;;;11.92;94.82
30618;BME280;17384;51.214;9.202;2023-08-08T05:42:14;98431.06;;;12.00;92.98
30618;BME280;17384;51.214;9.202;2023-08-08T05:44:40;98430.13;;;11.94;93.56
30618;BME280;17384;51.214;9.202;2023-08-08T05:47:08;98433.53;;;11.90;93.87
30618;BME280;17384;51.214;9.202;2023-08-08T05:49:34;98424.06;;;11.92;93.02
30618;BME280;17384;51.214;9.202;2023-08-08T05:52:01;98430.47;;;11.98;92.94
30618;BME280;17384;51.214;9.202;2023-08-08T05:54:26;98419.59;;;11.98;92.27
30618;BME280;17384;51.214;9.202;2023-08-08T05:56:53;98419.59;;;11.98;92.31
30618;BME280;17384;51.214;9.202;2023-08-08T05:59:19;98414.53;;;12.01;92.61
30618;BME280;17384;51.214;9.202;2023-08-08T06:01:44;98420.56;;;12.15;91.32
30618;BME280;17384;51.214;9.202;2023-08-08T06:04:10;98432.63;;;12.19;90.33
30618;BME280;17384;51.214;9.202;2023-08-08T06:06:35;98421.06;;;12.24;90.98
30618;BME280;17384;51.214;9.202;2023-08-08T06:09:01;98418.09;;;12.25;91.82
30618;BME280;17384;51.214;9.202;2023-08-08T06:11:27;98401.31;;;12.28;91.05
30618;BME280;17384;51.214;9.202;2023-08-08T06:13:52;98403.53;;;12.31;91.03
30618;BME280;17384;51.214;9.202;2023-08-08T06:16:19;98390.53;;;12.33;91.17
30618;BME280;17384;51.214;9.202;2023-08-08T06:18:45;98404.00;;;12.40;91.45
30618;BME280;17384;51.214;9.202;2023-08-08T06:21:11;98400.56;;;12.33;92.14
30618;BME280;17384;51.214;9.202;2023-08-08T06:23:36;98404.03;;;12.28;92.28
30618;BME280;17384;51.214;9.202;2023-08-08T06:26:02;98397.75;;;12.28;93.18
30618;BME280;17384;51.214;9.202;2023-08-08T06:28:27;98406.25;;;12.19;93.01
30618;BME280;17384;51.214;9.202;2023-08-08T06:30:56;98405.91;;;12.16;93.42
30618;BME280;17384;51.214;9.202;2023-08-08T06:33:21;98408.16;;;12.19;94.52
30618;BME280;17384;51.214;9.202;2023-08-08T06:35:47;98402.81;;;12.12;94.20
30618;BME280;17384;51.214;9.202;2023-08-08T06:38:12;98400.94;;;12.13;95.31
30618;BME280;17384;51.214;9.202;2023-08-08T06:40:38;98405.91;;;12.16;94.45
30618;BME280;17384;51.214;9.202;2023-08-08T06:43:03;98409.34;;;12.23;94.34
30618;BME280;17384;51.214;9.202;2023-08-08T06:45:29;98408.28;;;12.24;94.07
30618;BME280;17384;51.214;9.202;2023-08-08T06:50:20;98423.53;;;12.37;94.28
30618;BME280;17384;51.214;9.202;2023-08-08T06:52:45;98426.16;;;12.55;93.22
30618;BME280;17384;51.214;9.202;2023-08-08T06:55:11;98430.84;;;12.60;93.44
30618;BME280;17384;51.214;9.202;2023-08-08T06:57:36;98421.75;;;12.77;92.58
30618;BME280;17384;51.214;9.202;2023-08-08T07:00:03;98428.53;;;13.27;92.28
30618;BME280;17384;51.214;9.202;2023-08-08T07:02:31;98427.19;;;14.03;89.88
30618;BME280;17384;51.214;9.202;2023-08-08T07:04:57;98416.88;;;14.38;85.86
30618;BME280;17384;51.214;9.202;2023-08-08T07:07:23;98425.81;;;14.89;86.35
30618;BME280;17384;51.214;9.202;2023-08-08T07:09:48;98416.75;;;15.05;82.45
30618;BME280;17384;51.214;9.202;2023-08-08T07:12:14;98432.13;;;15.11;83.81
30618;BME280;17384;51.214;9.202;2023-08-08T07:14:39;98411.66;;;14.92;82.30
30618;BME280;17384;51.214;9.202;2023-08-08T07:17:05;98407.78;;;14.88;82.58
30618;BME280;17384;51.214;9.202;2023-08-08T07:19:31;98412.88;;;15.23;83.07
30618;BME280;17384;51.214;9.202;2023-08-08T07:21:56;98400.13;;;15.34;81.66
30618;BME280;17384;51.214;9.202;2023-08-08T07:24:22;98413.97;;;15.22;80.64
30618;BME280;17384;51.214;9.202;2023-08-08T07:26:51;98412.88;;;15.01;82.78
30618;BME280;17384;51.214;9.202;2023-08-08T07:29:17;98410.44;;;14.83;84.16
30618;BME280;17384;51.214;9.202;2023-08-08T07:31:43;98412.91;;;14.84;83.69
30618;BME280;17384;51.214;9.202;2023-08-08T07:34:08;98403.78;;;14.74;83.19
30618;BME280;17384;51.214;9.202;2023-08-08T07:36:34;98411.50;;;14.82;82.95
30618;BME280;17384;51.214;9.202;2023-08-08T07:38:59;98402.47;;;14.98;82.73
30618;BME280;17384;51.214;9.202;2023-08-08T07:41:26;98408.16;;;15.40;83.01
30618;BME280;17384;51.214;9.202;2023-08-08T07:43:52;98394.84;;;15.49;81.37
30618;BME280;17384;51.214;9.202;2023-08-08T07:46:18;98412.38;;;15.75;81.43
30618;BME280;17384;51.214;9.202;2023-08-08T07:48:47;98405.66;;;15.87;80.90
30618;BME280;17384;51.214;9.202;2023-08-08T07:51:14;98408.50;;;15.71;79.55
30618;BME280;17384;51.214;9.202;2023-08-08T07:53:40;98402.44;;;15.42;80.29
30618;BME280;17384;51.214;9.202;2023-08-08T07:56:06;98400.78;;;15.41;81.67
30618;BME280;17384;51.214;9.202;2023-08-08T07:58:32;98393.47;;;16.00;79.54
30618;BME280;17384;51.214;9.202;2023-08-08T08:00:58;98399.88;;;16.53;78.03
30618;BME280;17384;51.214;9.202;2023-08-08T08:03:26;98404.72;;;16.78;77.88
30618;BME280;17384;51.214;9.202;2023-08-08T08:05:53;98391.25;;;16.71;78.07
30618;BME280;17384;51.214;9.202;2023-08-08T08:08:19;98402.50;;;16.33;77.99
30618;BME280;17384;51.214;9.202;2023-08-08T08:10:44;98403.22;;;16.23;77.69
30618;BME280;17384;51.214;9.202;2023-08-08T08:13:11;98398.84;;;15.90;77.65
30618;BME280;17384;51.214;9.202;2023-08-08T08:15:37;98396.78;;;15.75;79.21
30618;BME280;17384;51.214;9.202;2023-08-08T08:18:03;98401.09;;;16.30;79.48
30618;BME280;17384;51.214;9.202;2023-08-08T08:20:29;98391.34;;;16.44;76.10
30618;BME280;17384;51.214;9.202;2023-08-08T08:22:54;98401.97;;;16.04;77.94
30618;BME280;17384;51.214;9.202;2023-08-08T08:25:20;98417.38;;;16.15;78.23
30618;BME280;17384;51.214;9.202;2023-08-08T08:27:46;98409.00;;;15.95;77.86
30618;BME280;17384;51.214;9.202;2023-08-08T08:30:12;98407.50;;;16.09;78.15
30618;BME280;17384;51.214;9.202;2023-08-08T08:32:40;98403.78;;;16.25;78.26
30618;BME280;17384;51.214;9.202;2023-08-08T08:35:06;98392.38;;;16.33;76.69
30618;BME280;17384;51.214;9.202;2023-08-08T08:37:34;98382.53;;;16.37;75.25
30618;BME280;17384;51.214;9.202;2023-08-08T08:40:00;98405.25;;;16.75;75.83
30618;BME280;17384;51.214;9.202;2023-08-08T08:42:27;98396.28;;;16.84;75.67
30618;BME280;17384;51.214;9.202;2023-08-08T08:44:58;98389.66;;;17.43;73.96
30618;BME280;17384;51.214;9.202;2023-08-08T08:47:25;98402.66;;;17.68;73.17
30618;BME280;17384;51.214;9.202;2023-08-08T08:49:55;98393.91;;;17.96;70.54
30618;BME280;17384;51.214;9.202;2023-08-08T08:52:21;98394.91;;;17.49;72.56
30618;BME280;17384;51.214;9.202;2023-08-08T08:54:48;98400.97;;;16.89;74.05
30618;BME280;17384;51.214;9.202;2023-08-08T08:57:14;98392.59;;;17.16;72.24
30618;BME280;17384;51.214;9.202;2023-08-08T08:59:40;98407.81;;;17.64;73.20
30618;BME280;17384;51.214;9.202;2023-08-08T09:02:06;98394.91;;;17.59;72.14
30618;BME280;17384;51.214;9.202;2023-08-08T09:04:33;98396.09;;;17.94;71.89
30618;BME280;17384;51.214;9.202;2023-08-08T09:07:00;98406.50;;;17.67;73.45
30618;BME280;17384;51.214;9.202;2023-08-08T09:09:26;98400.69;;;17.63;70.59
30618;BME280;17384;51.214;9.202;2023-08-08T09:11:53;98399.13;;;18.33;70.90
30618;BME280;17384;51.214;9.202;2023-08-08T09:14:23;98379.34;;;18.56;68.74
30618;BME280;17384;51.214;9.202;2023-08-08T09:16:50;98376.31;;;18.48;68.44
30618;BME280;17384;51.214;9.202;2023-08-08T09:19:18;98400.25;;;18.27;69.22
30618;BME280;17384;51.214;9.202;2023-08-08T09:21:44;98389.25;;;18.17;69.04
30618;BME280;17384;51.214;9.202;2023-08-08T09:24:10;98392.97;;;17.55;71.10
30618;BME280;17384;51.214;9.202;2023-08-08T09:26:36;98383.22;;;17.95;72.30
30618;BME280;17384;51.214;9.202;2023-08-08T09:29:02;98393.09;;;18.26;70.98
30618;BME280;17384;51.214;9.202;2023-08-08T09:31:29;98388.41;;;17.86;70.26
30618;BME280;17384;51.214;9.202;2023-08-08T09:34:00;98386.97;;;17.63;70.93
30618;BME280;17384;51.214;9.202;2023-08-08T09:36:26;98390.34;;;17.08;71.48
30618;BME280;17384;51.214;9.202;2023-08-08T09:38:56;98382.78;;;16.68;74.32
30618;BME280;17384;51.214;9.202;2023-08-08T09:41:23;98395.63;;;17.19;76.74
30618;BME280;17384;51.214;9.202;2023-08-08T09:43:52;98399.28;;;17.55;71.73
30618;BME280;17384;51.214;9.202;2023-08-08T09:46:19;98402.69;;;17.88;72.59
30618;BME280;17384;51.214;9.202;2023-08-08T09:48:46;98399.34;;;17.66;71.83
30618;BME280;17384;51.214;9.202;2023-08-08T09:51:12;98400.84;;;17.26;73.48
30618;BME280;17384;51.214;9.202;2023-08-08T09:53:39;98385.13;;;17.06;73.93
30618;BME280;17384;51.214;9.202;2023-08-08T09:56:05;98380.28;;;17.29;74.24
30618;BME280;17384;51.214;9.202;2023-08-08T09:58:31;98395.19;;;17.58;71.32
30618;BME280;17384;51.214;9.202;2023-08-08T10:00:57;98400.66;;;17.53;70.86
30618;BME280;17384;51.214;9.202;2023-08-08T10:03:24;98395.69;;;17.40;71.56
30618;BME280;17384;51.214;9.202;2023-08-08T10:05:51;98414.94;;;17.60;70.68
30618;BME280;17384;51.214;9.202;2023-08-08T10:08:18;98400.19;;;17.86;70.71
30618;BME280;17384;51.214;9.202;2023-08-08T10:10:46;98375.53;;;18.02;69.15
30618;BME280;17384;51.214;9.202;2023-08-08T10:13:46;98386.47;;;17.81;70.84
30618;BME280;17384;51.214;9.202;2023-08-08T10:16:12;98393.53;;;17.62;71.07
30618;BME280;17384;51.214;9.202;2023-08-08T10:18:40;98393.50;;;17.52;70.27
30618;BME280;17384;51.214;9.202;2023-08-08T10:21:06;98403.47;;;16.96;72.61
30618;BME280;17384;51.214;9.202;2023-08-08T10:23:39;98389.97;;;16.84;71.35
30618;BME280;17384;51.214;9.202;2023-08-08T10:26:06;98394.06;;;16.39;72.05
30618;BME280;17384;51.214;9.202;2023-08-08T10:28:52;98405.81;;;16.03;73.37
30618;BME280;17384;51.214;9.202;2023-08-08T10:31:20;98398.69;;;16.02;75.30
30618;BME280;17384;51.214;9.202;2023-08-08T10:33:46;98394.66;;;16.14;75.11
30618;BME280;17384;51.214;9.202;2023-08-08T10:36:11;98400.66;;;16.85;74.07
30618;BME280;17384;51.214;9.202;2023-08-08T10:38:43;98386.88;;;16.70;74.03
30618;BME280;17384;51.214;9.202;2023-08-08T10:41:11;98388.63;;;16.49;73.12
30618;BME280;17384;51.214;9.202;2023-08-08T10:43:38;98401.50;;;16.86;74.47
30618;BME280;17384;51.214;9.202;2023-08-08T10:46:04;98397.94;;;17.58;72.28
30618;BME280;17384;51.214;9.202;2023-08-08T10:48:30;98406.69;;;17.50;72.07
30618;BME280;17384;51.214;9.202;2023-08-08T10:51:00;98401.50;;;16.86;72.54
30618;BME280;17384;51.214;9.202;2023-08-08T10:53:27;98408.41;;;16.56;73.59
30618;BME280;17384;51.214;9.202;2023-08-08T10:56:02;98413.75;;;16.36;74.52
30618;BME280;17384;51.214;9.202;2023-08-08T10:58:41;98409.94;;;16.05;75.05
30618;BME280;17384;51.214;9.202;2023-08-08T11:01:07;98407.00;;;16.12;75.16
30618;BME280;17384;51.214;9.202;2023-08-08T11:03:38;98428.16;;;16.27;76.76
30618;BME280;17384;51.214;9.202;2023-08-08T11:06:09;98413.28;;;16.12;77.03
30618;BME280;17384;51.214;9.202;2023-08-08T11:08:36;98416.34;;;16.21;76.70
30618;BME280;17384;51.214;9.202;2023-08-08T11:11:04;98403.00;;;16.30;75.57
30618;BME280;17384;51.214;9.202;2023-08-08T11:13:30;98392.41;;;16.43;75.61
30618;BME280;17384;51.214;9.202;2023-08-08T11:15:56;98404.22;;;16.86;74.02
30618;BME280;17384;51.214;9.202;2023-08-08T11:18:22;98398.91;;;17.16;71.86
30618;BME280;17384;51.214;9.202;2023-08-08T11:20:49;98391.94;;;16.99;72.02
30618;BME280;17384;51.214;9.202;2023-08-08T11:23:15;98404.56;;;16.95;74.96
30618;BME280;17384;51.214;9.202;2023-08-08T11:25:42;98391.00;;;16.73;73.30
30618;BME280;17384;51.214;9.202;2023-08-08T11:28:09;98400.41;;;16.50;74.45
30618;BME280;17384;51.214;9.202;2023-08-08T11:30:38;98392.16;;;16.40;74.02
30618;BME280;17384;51.214;9.202;2023-08-08T11:33:05;98400.44;;;16.18;74.47
30618;BME280;17384;51.214;9.202;2023-08-08T11:35:30;98405.75;;;15.98;75.04
30618;BME280;17384;51.214;9.202;2023-08-08T11:37:57;98400.81;;;15.95;75.97
30618;BME280;17384;51.214;9.202;2023-08-08T11:40:25;98409.53;;;15.91;75.75
30618;BME280;17384;51.214;9.202;2023-08-08T11:42:52;98409.78;;;15.90;76.14
30618;BME280;17384;51.214;9.202;2023-08-08T11:45:18;98410.31;;;15.60;76.92
30618;BME280;17384;51.214;9.202;2023-08-08T11:47:50;98402.06;;;15.11;79.45
30618;BME280;17384;51.214;9.202;2023-08-08T11:50:18;98408.22;;;14.80;83.68
30618;BME280;17384;51.214;9.202;2023-08-08T11:52:45;98412.25;;;14.39;86.47
30618;BME280;17384;51.214;9.202;2023-08-08T11:55:12;98415.88;;;14.11;88.69
30618;BME280;17384;51.214;9.202;2023-08-08T11:57:39;98421.41;;;13.82;91.35
30618;BME280;17384;51.214;9.202;2023-08-08T12:00:09;98417.25;;;13.80;92.73
30618;BME280;17384;51.214;9.202;2023-08-08T12:02:39;98417.59;;;13.83;92.78
30618;BME280;17384;51.214;9.202;2023-08-08T12:05:06;98411.41;;;13.88;93.55
30618;BME280;17384;51.214;9.202;2023-08-08T12:07:35;98402.16;;;13.89;93.52
30618;BME280;17384;51.214;9.202;2023-08-08T12:10:05;98417.75;;;13.77;94.26
30618;BME280;17384;51.214;9.202;2023-08-08T12:12:32;98399.41;;;13.72;94.95
30618;BME280;17384;51.214;9.202;2023-08-08T12:15:07;98388.03;;;14.09;96.08
30618;BME280;17384;51.214;9.202;2023-08-08T12:17:33;98378.91;;;14.53;95.74
30618;BME280;17384;51.214;9.202;2023-08-08T12:19:59;98372.47;;;15.03;93.25
30618;BME280;17384;51.214;9.202;2023-08-08T12:22:25;98380.88;;;15.45;90.20
30618;BME280;17384;51.214;9.202;2023-08-08T12:24:51;98382.22;;;15.43;87.35
30618;BME280;17384;51.214;9.202;2023-08-08T12:27:16;98381.00;;;15.55;87.39
30618;BME280;17384;51.214;9.202;2023-08-08T12:29:41;98375.38;;;15.67;86.88
30618;BME280;17384;51.214;9.202;2023-08-08T12:32:07;98388.34;;;16.09;86.60
30618;BME280;17384;51.214;9.202;2023-08-08T12:34:32;98389.16;;;15.77;86.90
30618;BME280;17384;51.214;9.202;2023-08-08T12:36:58;98384.66;;;15.93;87.72
30618;BME280;17384;51.214;9.202;2023-08-08T12:39:23;98384.75;;;16.03;87.28
30618;BME280;17384;51.214;9.202;2023-08-08T12:41:48;98387.09;;;16.27;84.47
30618;BME280;17384;51.214;9.202;2023-08-08T12:44:14;98396.09;;;16.59;84.95
30618;BME280;17384;51.214;9.202;2023-08-08T12:46:39;98392.25;;;16.55;79.05
30618;BME280;17384;51.214;9.202;2023-08-08T12:49:05;98394.03;;;16.76;77.65
30618;BME280;17384;51.214;9.202;2023-08-08T12:51:30;98397.97;;;16.90;77.99
30618;BME280;17384;51.214;9.202;2023-08-08T12:53:55;98398.53;;;16.92;75.91
30618;BME280;17384;51.214;9.202;2023-08-08T12:56:21;98399.63;;;16.91;77.63
30618;BME280;17384;51.214;9.202;2023-08-08T12:58:46;98404.50;;;16.84;77.18
30618;BME280;17384;51.214;9.202;2023-08-08T13:01:11;98397.97;;;16.90;76.83
30618;BME280;17384;51.214;9.202;2023-08-08T13:03:36;98397.13;;;16.90;77.40